This is the latest recevied weather packets stored in our database for station/object VA3ZFM-10. If no packets are shown the sender has not sent any weather packets the latest 10 day(s).
| Time | Temp. | Humidity | Pressure | Rain* | Wind** | Luminosity | Snow |
|---|---|---|---|---|---|---|---|
| 1778173228 | 8.33° C | 40% | 1008.5 hPa | 0 mm | - | - | - |
| 1778172923 | 8.33° C | 40% | 1008.4 hPa | 0 mm | - | - | - |
| 1778172620 | 8.89° C | 40% | 1008.7 hPa | 0 mm | - | - | - |
| 1778172316 | 9.44° C | 39% | 1008.5 hPa | 0 mm | - | - | - |
| 1778172014 | 8.33° C | 39% | 1008.6 hPa | 0 mm | - | - | - |
| 1778171710 | 8.33° C | 41% | 1008.7 hPa | 0 mm | - | - | - |
| 1778171409 | 8.33° C | 41% | 1008.8 hPa | 0 mm | - | - | - |
| 1778171103 | 8.33° C | 41% | 1008.8 hPa | 0 mm | - | - | - |
| 1778170800 | 7.78° C | 42% | 1008.8 hPa | 0 mm | - | - | - |
| 1778170496 | 7.78° C | 42% | 1008.8 hPa | 0 mm | - | - | - |
| 1778170194 | 7.78° C | 41% | 1009.2 hPa | 0 mm | - | - | - |
| 1778169889 | 8.33° C | 40% | 1008.9 hPa | 0 mm | - | - | - |
| 1778169585 | 7.22° C | 43% | 1009 hPa | 0 mm | - | - | - |
| 1778169281 | 7.22° C | 44% | 1009.1 hPa | 0 mm | - | - | - |
| 1778168979 | 7.78° C | 42% | 1009.1 hPa | 0 mm | - | - | - |
| 1778168675 | 7.22° C | 43% | 1009.1 hPa | 0 mm | - | - | - |
| 1778168373 | 7.22° C | 43% | 1009.2 hPa | 0 mm | - | - | - |
| 1778168069 | 6.67° C | 45% | 1009.1 hPa | 0 mm | - | - | - |
| 1778167765 | 6.67° C | 45% | 1009.4 hPa | 0 mm | - | - | - |
| 1778167461 | 7.78° C | 45% | 1009.4 hPa | 0 mm | - | - | - |
| 1778167157 | 7.78° C | 44% | 1009.3 hPa | 0 mm | - | - | - |
| 1778166855 | 7.22° C | 45% | 1009.3 hPa | 0 mm | - | - | - |
| 1778166551 | 6.67° C | 47% | 1009.2 hPa | 0 mm | - | - | - |
| 1778166248 | 6.11° C | 47% | 1009.4 hPa | 0 mm | - | - | - |
| 1778165944 | 6.11° C | 48% | 1009.5 hPa | 0 mm | - | - | - |
* Rain latest hour (hover to see other rain measurements)
** Current wind speed in m/s (hover to see current wind gust speed)